createdAt,value
2024-03-30T00:01:19.574Z,101175.94
2024-03-30T00:03:48.402Z,101170.70
2024-03-30T00:06:16.635Z,101164.99
2024-03-30T00:08:44.709Z,101162.56
2024-03-30T00:11:12.826Z,101171.94
2024-03-30T00:13:40.890Z,101166.29
2024-03-30T00:16:13.200Z,101161.36
2024-03-30T00:18:41.837Z,101162.13
2024-03-30T00:21:17.398Z,101177.44
2024-03-30T00:23:45.700Z,101180.88
2024-03-30T00:26:14.001Z,101179.94
2024-03-30T00:28:42.220Z,101173.81
2024-03-30T00:31:10.392Z,101174.67
2024-03-30T00:33:39.136Z,101170.33
2024-03-30T00:36:07.593Z,101165.88
2024-03-30T00:38:38.849Z,101163.01
2024-03-30T00:41:06.874Z,101161.92
2024-03-30T00:43:35.151Z,101160.95
2024-03-30T00:46:03.222Z,101158.31
2024-03-30T00:48:31.356Z,101155.33
2024-03-30T00:50:59.537Z,101161.52
2024-03-30T00:53:28.030Z,101163.76
2024-03-30T00:56:02.265Z,101165.34
2024-03-30T00:58:30.254Z,101162.85
2024-03-30T01:00:58.513Z,101166.99
2024-03-30T01:03:27.654Z,101172.92
2024-03-30T01:05:55.898Z,101171.11
2024-03-30T01:08:23.955Z,101173.00
2024-03-30T01:11:01.622Z,101172.86
2024-03-30T01:13:30.657Z,101177.96
2024-03-30T01:15:59.615Z,101178.83
2024-03-30T01:18:28.952Z,101177.29
2024-03-30T01:20:59.623Z,101182.80
2024-03-30T01:23:30.620Z,101180.18
2024-03-30T01:25:59.718Z,101182.59
2024-03-30T01:28:28.448Z,101179.94
2024-03-30T01:30:57.016Z,101179.59
2024-03-30T01:33:25.532Z,101177.74
2024-03-30T01:35:53.579Z,101177.79
2024-03-30T01:38:21.788Z,101179.30
2024-03-30T01:40:51.280Z,101176.16
2024-03-30T01:43:19.344Z,101178.31
2024-03-30T01:45:48.927Z,101178.57
2024-03-30T01:48:17.909Z,101179.50
2024-03-30T01:50:45.997Z,101178.41
2024-03-30T01:53:20.224Z,101177.03
2024-03-30T01:55:50.179Z,101178.16
2024-03-30T01:58:24.592Z,101172.83
2024-03-30T02:00:55.688Z,101172.89
2024-03-30T02:03:25.117Z,101175.64
2024-03-30T02:05:55.745Z,101174.89
2024-03-30T02:08:26.142Z,101178.10
2024-03-30T02:10:56.988Z,101183.39
2024-03-30T02:13:25.719Z,101185.65
2024-03-30T02:15:53.749Z,101184.75
2024-03-30T02:18:21.865Z,101182.41
2024-03-30T02:20:49.824Z,101179.16
2024-03-30T02:23:18.187Z,101183.19
2024-03-30T02:25:46.597Z,101187.70
2024-03-30T02:28:16.883Z,101188.74
2024-03-30T02:30:45.488Z,101190.42
2024-03-30T02:33:13.591Z,101189.81
2024-03-30T02:35:41.863Z,101195.23
2024-03-30T02:38:09.905Z,101195.78
2024-03-30T02:40:38.700Z,101196.81
2024-03-30T02:43:07.488Z,101199.65
2024-03-30T02:45:35.674Z,101200.19
2024-03-30T02:48:04.761Z,101192.98
2024-03-30T02:50:33.152Z,101192.05
2024-03-30T02:53:01.233Z,101194.11
2024-03-30T02:55:29.731Z,101198.34
2024-03-30T02:57:57.678Z,101198.54
2024-03-30T03:00:25.863Z,101198.46
2024-03-30T03:02:54.219Z,101199.64
2024-03-30T03:05:22.509Z,101197.45
2024-03-30T03:07:50.838Z,101194.16
2024-03-30T03:10:18.812Z,101199.40
2024-03-30T03:12:46.999Z,101194.21
2024-03-30T03:15:15.232Z,101195.30
2024-03-30T03:17:43.466Z,101198.95
2024-03-30T03:20:11.849Z,101194.16
2024-03-30T03:22:40.417Z,101200.36
2024-03-30T03:25:08.408Z,101200.05
2024-03-30T03:27:36.443Z,101198.74
2024-03-30T03:30:05.592Z,101192.91
2024-03-30T03:32:33.556Z,101188.61
2024-03-30T03:35:01.542Z,101191.08
2024-03-30T03:37:29.752Z,101182.81
2024-03-30T03:39:57.714Z,101185.02
2024-03-30T03:42:25.960Z,101187.17
2024-03-30T03:44:54.244Z,101189.70
2024-03-30T03:47:23.186Z,101189.33
2024-03-30T03:49:51.215Z,101192.55
2024-03-30T03:52:19.487Z,101189.73
2024-03-30T03:54:47.466Z,101195.63
2024-03-30T03:57:15.958Z,101188.07
2024-03-30T03:59:44.415Z,101196.36
2024-03-30T04:02:12.566Z,101201.52
2024-03-30T04:04:40.695Z,101198.19
2024-03-30T04:07:09.386Z,101199.55
2024-03-30T04:09:37.344Z,101194.80
2024-03-30T04:12:05.915Z,101197.69
2024-03-30T04:14:35.045Z,101189.34
2024-03-30T04:17:03.581Z,101185.92
2024-03-30T04:19:31.499Z,101189.33
2024-03-30T04:22:00.480Z,101189.09
2024-03-30T04:24:28.407Z,101191.64
2024-03-30T04:26:56.483Z,101193.56
2024-03-30T04:29:24.390Z,101191.80
2024-03-30T04:31:52.346Z,101195.52
2024-03-30T04:34:20.595Z,101193.16
2024-03-30T04:36:48.589Z,101192.55
2024-03-30T04:39:16.720Z,101193.91
2024-03-30T04:41:44.686Z,101197.05
2024-03-30T04:44:12.839Z,101197.22
2024-03-30T04:46:40.785Z,101193.77
2024-03-30T04:49:11.410Z,101188.03
2024-03-30T04:51:40.752Z,101190.19
2024-03-30T04:54:08.910Z,101184.90
2024-03-30T04:56:36.981Z,101186.70
2024-03-30T04:59:04.937Z,101186.27
2024-03-30T05:01:33.356Z,101187.69
2024-03-30T05:04:01.533Z,101189.17
2024-03-30T05:06:29.768Z,101189.69
2024-03-30T05:08:58.131Z,101190.66
2024-03-30T05:11:26.160Z,101189.19
2024-03-30T05:13:54.876Z,101184.71
2024-03-30T05:16:23.024Z,101186.67
2024-03-30T05:18:51.625Z,101183.18
2024-03-30T05:21:28.715Z,101182.63
2024-03-30T05:23:57.008Z,101182.50
2024-03-30T05:26:25.498Z,101184.45
2024-03-30T05:28:53.436Z,101179.55
2024-03-30T05:31:22.879Z,101181.13
2024-03-30T05:33:51.373Z,101178.87
2024-03-30T05:36:19.622Z,101173.29
2024-03-30T05:38:47.804Z,101174.43
2024-03-30T05:41:15.978Z,101174.70
2024-03-30T05:43:44.089Z,101176.93
2024-03-30T05:46:23.703Z,101179.92
2024-03-30T05:48:51.837Z,101178.98
2024-03-30T05:51:20.167Z,101173.90
2024-03-30T05:53:48.149Z,101173.02
2024-03-30T05:56:16.326Z,101169.56
2024-03-30T05:58:44.510Z,101164.63
2024-03-30T06:01:12.692Z,101164.65
2024-03-30T06:03:40.891Z,101159.54
2024-03-30T06:06:09.235Z,101156.67
2024-03-30T06:08:37.559Z,101160.39
2024-03-30T06:11:05.810Z,101163.60
2024-03-30T06:13:33.865Z,101161.65
2024-03-30T06:16:03.768Z,101159.81
2024-03-30T06:18:32.806Z,101161.05
2024-03-30T06:21:00.938Z,101160.40
2024-03-30T06:23:28.926Z,101160.36
2024-03-30T06:25:56.927Z,101156.14
2024-03-30T06:28:24.929Z,101152.98
2024-03-30T06:30:52.914Z,101149.34
2024-03-30T06:33:21.200Z,101142.19
2024-03-30T06:35:55.576Z,101136.84
2024-03-30T06:38:23.491Z,101139.33
2024-03-30T06:41:10.592Z,101145.69
2024-03-30T06:43:48.168Z,101149.92
2024-03-30T06:46:17.694Z,101149.61
2024-03-30T06:48:46.061Z,101146.73
2024-03-30T06:51:14.146Z,101148.41
2024-03-30T06:53:42.090Z,101145.63
2024-03-30T06:56:10.918Z,101144.48
2024-03-30T06:58:39.207Z,101145.73
2024-03-30T07:01:07.584Z,101142.45
2024-03-30T07:03:36.185Z,101141.74
2024-03-30T07:06:04.450Z,101141.05
2024-03-30T07:08:32.476Z,101142.70
2024-03-30T07:11:00.471Z,101141.91
2024-03-30T07:13:28.639Z,101142.53
2024-03-30T07:15:56.881Z,101144.34
2024-03-30T07:18:25.074Z,101143.51
2024-03-30T07:20:53.145Z,101130.82
2024-03-30T07:23:21.513Z,101128.14
2024-03-30T07:25:49.688Z,101130.41
2024-03-30T07:28:17.749Z,101133.52
2024-03-30T07:30:47.308Z,101136.39
2024-03-30T07:33:15.438Z,101141.84
2024-03-30T07:35:43.379Z,101134.38
2024-03-30T07:38:11.608Z,101136.45
2024-03-30T07:40:39.716Z,101139.73
2024-03-30T07:43:07.954Z,101141.15
2024-03-30T07:45:36.021Z,101140.21
2024-03-30T07:48:04.644Z,101141.33
2024-03-30T07:50:32.746Z,101141.98
2024-03-30T07:53:00.855Z,101139.44
2024-03-30T07:55:28.875Z,101138.22
2024-03-30T07:57:57.321Z,101136.64
2024-03-30T08:00:25.632Z,101131.50
2024-03-30T08:03:00.680Z,101132.14
2024-03-30T08:05:30.264Z,101131.13
2024-03-30T08:07:58.775Z,101127.19
2024-03-30T08:10:26.848Z,101126.60
2024-03-30T08:12:57.022Z,101121.73
2024-03-30T08:15:25.259Z,101119.88
2024-03-30T08:17:53.953Z,101119.23
2024-03-30T08:20:22.124Z,101122.42
2024-03-30T08:22:50.716Z,101119.63
2024-03-30T08:25:18.924Z,101119.13
2024-03-30T08:27:47.071Z,101119.77
2024-03-30T08:30:15.863Z,101117.52
2024-03-30T08:32:44.149Z,101115.81
2024-03-30T08:35:12.284Z,101117.10
2024-03-30T08:37:40.248Z,101112.31
2024-03-30T08:40:08.897Z,101112.08
2024-03-30T08:42:36.980Z,101108.48
2024-03-30T08:45:05.694Z,101109.25
2024-03-30T08:47:33.791Z,101100.84
2024-03-30T08:50:02.076Z,101096.79
2024-03-30T08:52:30.181Z,101093.05
2024-03-30T08:54:58.126Z,101095.84
2024-03-30T08:57:26.356Z,101089.02
2024-03-30T08:59:54.590Z,101089.91
2024-03-30T09:02:22.876Z,101083.97
2024-03-30T09:04:51.017Z,101078.66
2024-03-30T09:07:19.798Z,101075.32
2024-03-30T09:09:47.780Z,101071.17
2024-03-30T09:12:15.975Z,101071.31
2024-03-30T09:14:44.155Z,101073.95
2024-03-30T09:17:12.449Z,101071.58
2024-03-30T09:19:40.728Z,101066.64
2024-03-30T09:22:09.014Z,101063.15
2024-03-30T09:24:37.294Z,101058.23
2024-03-30T09:27:05.518Z,101060.24
2024-03-30T09:29:33.427Z,101058.67
2024-03-30T09:32:01.448Z,101056.21
2024-03-30T09:34:38.603Z,101055.07
2024-03-30T09:37:14.064Z,101048.52
2024-03-30T09:39:42.208Z,101049.24
2024-03-30T09:42:19.852Z,101042.05
2024-03-30T09:44:48.026Z,101040.33
2024-03-30T09:47:17.451Z,101029.80
2024-03-30T09:49:47.787Z,101027.39
2024-03-30T09:52:20.190Z,101023.85
2024-03-30T09:54:52.562Z,101027.72
2024-03-30T09:57:23.164Z,101037.00
2024-03-30T09:59:51.786Z,101029.98
2024-03-30T10:02:21.120Z,101027.86
2024-03-30T10:04:49.207Z,101021.23
2024-03-30T10:07:23.019Z,101014.70
2024-03-30T10:10:00.210Z,101012.16
2024-03-30T10:12:49.017Z,101012.75
2024-03-30T10:15:24.867Z,101005.56
2024-03-30T10:17:52.981Z,101006.20
2024-03-30T10:20:22.257Z,100998.32
2024-03-30T10:22:50.309Z,100987.31
2024-03-30T10:25:19.756Z,100992.91
2024-03-30T10:27:47.971Z,100985.59
2024-03-30T10:30:17.684Z,100986.32
2024-03-30T10:32:47.016Z,100992.94
2024-03-30T10:35:20.946Z,100995.52
2024-03-30T10:37:49.085Z,100995.06
2024-03-30T10:40:17.280Z,100995.78
2024-03-30T10:42:45.620Z,100987.63
2024-03-30T10:45:13.806Z,100980.02
2024-03-30T10:47:41.786Z,100974.90
2024-03-30T10:50:10.682Z,100978.63
2024-03-30T10:52:40.263Z,100969.69
2024-03-30T10:55:08.416Z,100968.23
2024-03-30T10:57:36.369Z,100962.86
2024-03-30T11:00:08.220Z,100955.63
2024-03-30T11:02:38.495Z,100953.84
2024-03-30T11:05:08.225Z,100951.66
2024-03-30T11:07:39.992Z,100955.88
2024-03-30T11:10:08.305Z,100944.06
2024-03-30T11:12:36.280Z,100950.40
2024-03-30T11:15:04.995Z,100938.63
2024-03-30T11:17:39.401Z,100938.48
2024-03-30T11:20:15.930Z,100933.80
2024-03-30T11:22:57.095Z,100925.29
2024-03-30T11:25:30.691Z,100921.45
2024-03-30T11:28:05.436Z,100918.90
2024-03-30T11:30:52.922Z,100918.92
2024-03-30T11:33:27.538Z,100916.09
2024-03-30T11:35:58.966Z,100910.91
2024-03-30T11:38:40.234Z,100904.41
2024-03-30T11:41:10.368Z,100900.24
2024-03-30T11:44:03.874Z,100901.02
2024-03-30T11:46:32.900Z,100895.80
2024-03-30T11:49:01.057Z,100883.59
2024-03-30T11:51:32.842Z,100882.38
2024-03-30T11:54:00.921Z,100883.42
2024-03-30T11:56:35.128Z,100884.59
2024-03-30T11:59:03.077Z,100875.16
2024-03-30T12:01:31.328Z,100875.34
2024-03-30T12:03:59.879Z,100873.23
2024-03-30T12:06:28.011Z,100873.27
2024-03-30T12:08:56.215Z,100867.61
2024-03-30T12:11:24.157Z,100867.62
2024-03-30T12:13:54.333Z,100863.26
2024-03-30T12:16:22.560Z,100862.03
2024-03-30T12:18:51.217Z,100859.64
2024-03-30T12:21:19.485Z,100853.77
2024-03-30T12:23:47.916Z,100852.33
2024-03-30T12:26:16.725Z,100858.04
2024-03-30T12:28:45.337Z,100850.98
2024-03-30T12:31:13.584Z,100846.52
2024-03-30T12:33:42.267Z,100838.80
2024-03-30T12:36:10.407Z,100834.75
2024-03-30T12:38:42.382Z,100832.52
2024-03-30T12:41:10.506Z,100827.40
2024-03-30T12:43:38.474Z,100828.02
2024-03-30T12:46:06.445Z,100822.46
2024-03-30T12:48:34.781Z,100820.56
2024-03-30T12:51:03.476Z,100827.49
2024-03-30T12:53:31.708Z,100815.30
2024-03-30T12:55:59.979Z,100811.20
2024-03-30T12:58:28.279Z,100813.15
2024-03-30T13:00:56.526Z,100810.30
2024-03-30T13:03:24.568Z,100809.73
2024-03-30T13:05:53.065Z,100805.49
2024-03-30T13:08:21.205Z,100806.44
2024-03-30T13:10:49.703Z,100801.52
2024-03-30T13:13:17.838Z,100793.62
2024-03-30T13:15:46.059Z,100793.65
2024-03-30T13:18:14.646Z,100790.50
2024-03-30T13:20:42.638Z,100788.39
2024-03-30T13:23:11.642Z,100789.15
2024-03-30T13:25:39.868Z,100788.89
2024-03-30T13:28:08.159Z,100790.27
2024-03-30T13:30:36.718Z,100788.61
2024-03-30T13:33:05.444Z,100786.04
2024-03-30T13:35:34.642Z,100780.98
2024-03-30T13:38:04.019Z,100774.28
2024-03-30T13:40:32.156Z,100771.88
2024-03-30T13:43:00.127Z,100772.63
2024-03-30T13:45:30.193Z,100769.25
2024-03-30T13:48:00.961Z,100769.77
2024-03-30T13:50:29.340Z,100768.71
2024-03-30T13:52:57.779Z,100765.66
2024-03-30T13:55:26.828Z,100765.58
2024-03-30T13:57:56.548Z,100768.66
2024-03-30T14:00:24.584Z,100764.61
2024-03-30T14:02:52.661Z,100762.59
2024-03-30T14:05:24.563Z,100760.75
2024-03-30T14:07:52.729Z,100754.88
2024-03-30T14:10:20.705Z,100750.24
2024-03-30T14:12:49.167Z,100744.70
2024-03-30T14:15:17.499Z,100741.34
2024-03-30T14:17:47.108Z,100742.66
2024-03-30T14:20:18.043Z,100740.31
2024-03-30T14:22:46.110Z,100741.85
2024-03-30T14:25:14.460Z,100749.50
2024-03-30T14:27:42.755Z,100747.90
2024-03-30T14:30:11.167Z,100744.81
2024-03-30T14:32:39.248Z,100742.84
2024-03-30T14:35:07.806Z,100734.80
2024-03-30T14:37:35.891Z,100740.49
2024-03-30T14:40:06.052Z,100738.48
2024-03-30T14:42:33.959Z,100735.98
2024-03-30T14:45:02.166Z,100736.58
2024-03-30T14:47:30.241Z,100740.98
2024-03-30T14:49:58.417Z,100741.50
2024-03-30T14:52:26.600Z,100744.88
2024-03-30T14:54:54.562Z,100742.84
2024-03-30T14:57:23.581Z,100739.27
2024-03-30T14:59:51.922Z,100736.27
2024-03-30T15:02:19.935Z,100736.40
2024-03-30T15:04:48.446Z,100732.05
2024-03-30T15:07:17.852Z,100732.66
2024-03-30T15:09:46.245Z,100732.91
2024-03-30T15:12:14.378Z,100724.43
2024-03-30T15:14:42.476Z,100725.53
2024-03-30T15:17:10.955Z,100725.29
2024-03-30T15:19:39.040Z,100725.09
2024-03-30T15:22:07.077Z,100730.44
2024-03-30T15:24:35.113Z,100732.34
2024-03-30T15:27:04.271Z,100726.63
2024-03-30T15:29:34.218Z,100725.75
2024-03-30T15:32:16.569Z,100729.34
2024-03-30T15:34:46.507Z,100735.14
2024-03-30T15:37:14.478Z,100736.06
2024-03-30T15:39:42.638Z,100736.10
2024-03-30T15:42:11.088Z,100735.27
2024-03-30T15:44:39.253Z,100741.61
2024-03-30T15:47:09.808Z,100736.27
2024-03-30T15:49:38.077Z,100735.45
2024-03-30T15:52:06.962Z,100740.15
2024-03-30T15:54:34.930Z,100741.31
2024-03-30T15:57:04.097Z,100736.17
2024-03-30T15:59:32.230Z,100739.34
2024-03-30T16:02:00.360Z,100741.72
2024-03-30T16:04:28.775Z,100741.02
2024-03-30T16:06:57.259Z,100742.04
2024-03-30T16:09:25.929Z,100738.27
2024-03-30T16:11:54.170Z,100738.73
2024-03-30T16:14:22.877Z,100740.40
2024-03-30T16:16:50.840Z,100742.94
2024-03-30T16:19:18.985Z,100740.81
2024-03-30T16:21:47.177Z,100740.09
2024-03-30T16:24:15.179Z,100743.42
2024-03-30T16:26:43.323Z,100745.20
2024-03-30T16:29:11.267Z,100744.87
2024-03-30T16:31:39.383Z,100745.88
2024-03-30T16:34:07.580Z,100750.64
2024-03-30T16:36:35.796Z,100753.02
2024-03-30T16:39:14.352Z,100748.41
2024-03-30T16:41:47.006Z,100746.89
2024-03-30T16:44:24.432Z,100745.52
2024-03-30T16:46:52.926Z,100742.71
2024-03-30T16:49:21.763Z,100743.80
2024-03-30T16:51:51.683Z,100743.54
2024-03-30T16:54:21.164Z,100748.09
2024-03-30T16:56:49.212Z,100753.50
2024-03-30T16:59:17.404Z,100754.98
2024-03-30T17:01:45.491Z,100759.15
2024-03-30T17:04:14.372Z,100757.48
2024-03-30T17:06:42.641Z,100756.10
2024-03-30T17:09:10.649Z,100758.34
2024-03-30T17:11:38.648Z,100757.11
2024-03-30T17:14:08.117Z,100764.48
2024-03-30T17:16:36.330Z,100765.19
2024-03-30T17:19:04.788Z,100765.39
2024-03-30T17:21:32.940Z,100766.83
2024-03-30T17:24:02.066Z,100774.83
2024-03-30T17:26:30.306Z,100774.96
2024-03-30T17:28:58.269Z,100778.63
2024-03-30T17:31:26.315Z,100780.27
2024-03-30T17:33:54.310Z,100781.09
2024-03-30T17:36:22.330Z,100780.11
2024-03-30T17:38:50.648Z,100784.44
2024-03-30T17:41:18.814Z,100785.95
2024-03-30T17:43:46.918Z,100785.50
2024-03-30T17:46:16.682Z,100787.68
2024-03-30T17:48:45.418Z,100786.64
2024-03-30T17:51:14.700Z,100789.54
2024-03-30T17:53:48.322Z,100789.80
2024-03-30T17:56:16.307Z,100790.94
2024-03-30T17:58:46.865Z,100786.54
2024-03-30T18:01:17.907Z,100785.27
2024-03-30T18:03:47.571Z,100786.45
2024-03-30T18:06:24.333Z,100785.88
2024-03-30T18:08:55.254Z,100787.46
2024-03-30T18:11:26.953Z,100785.20
2024-03-30T18:13:56.879Z,100786.02
2024-03-30T18:16:25.105Z,100787.66
2024-03-30T18:18:53.075Z,100787.86
2024-03-30T18:21:21.217Z,100785.84
2024-03-30T18:23:51.296Z,100783.11
2024-03-30T18:26:20.755Z,100782.77
2024-03-30T18:28:49.923Z,100786.25
2024-03-30T18:31:19.651Z,100783.90
2024-03-30T18:33:49.584Z,100783.36
2024-03-30T18:36:17.645Z,100782.45
2024-03-30T18:38:46.048Z,100782.27
2024-03-30T18:41:13.978Z,100787.23
2024-03-30T18:43:43.486Z,100790.35
2024-03-30T18:46:14.250Z,100790.52
2024-03-30T18:48:42.248Z,100791.94
2024-03-30T18:51:11.592Z,100789.45
2024-03-30T18:53:39.912Z,100788.91
2024-03-30T18:56:09.752Z,100786.38
2024-03-30T18:58:37.833Z,100786.56
2024-03-30T19:01:09.431Z,100786.89
2024-03-30T19:03:37.549Z,100786.95
2024-03-30T19:06:05.897Z,100789.65
2024-03-30T19:08:33.936Z,100789.98
2024-03-30T19:11:05.522Z,100795.33
2024-03-30T19:13:33.777Z,100793.21
2024-03-30T19:16:01.757Z,100792.95
2024-03-30T19:18:29.701Z,100793.00
2024-03-30T19:20:57.781Z,100797.05
2024-03-30T19:23:26.036Z,100800.82
2024-03-30T19:25:54.371Z,100803.69
2024-03-30T19:28:23.237Z,100801.79
2024-03-30T19:30:55.330Z,100799.36
2024-03-30T19:33:23.257Z,100797.59
2024-03-30T19:35:58.787Z,100799.05
2024-03-30T19:38:30.503Z,100802.88
2024-03-30T19:41:11.714Z,100801.58
2024-03-30T19:43:40.194Z,100802.20
2024-03-30T19:46:08.262Z,100804.56
2024-03-30T19:48:36.424Z,100808.08
2024-03-30T19:51:05.506Z,100813.97
2024-03-30T19:53:36.798Z,100812.66
2024-03-30T19:56:05.517Z,100817.85
2024-03-30T19:58:33.482Z,100821.98
2024-03-30T20:01:08.981Z,100820.08
2024-03-30T20:03:37.626Z,100825.77
2024-03-30T20:06:07.170Z,100824.52
2024-03-30T20:08:36.770Z,100825.27
2024-03-30T20:11:05.649Z,100826.45
2024-03-30T20:13:34.330Z,100824.52
2024-03-30T20:16:05.641Z,100833.27
2024-03-30T20:18:37.065Z,100827.24
2024-03-30T20:21:05.932Z,100835.02
2024-03-30T20:23:36.931Z,100840.28
2024-03-30T20:26:06.419Z,100837.83
2024-03-30T20:28:35.558Z,100839.52
2024-03-30T20:31:11.425Z,100840.59
2024-03-30T20:33:39.902Z,100844.40
2024-03-30T20:36:09.884Z,100842.58
2024-03-30T20:38:39.013Z,100838.56
2024-03-30T20:41:10.917Z,100833.98
2024-03-30T20:43:40.986Z,100835.95
2024-03-30T20:46:13.492Z,100834.39
2024-03-30T20:48:45.767Z,100838.75
2024-03-30T20:51:14.056Z,100840.03
2024-03-30T20:53:42.686Z,100843.67
2024-03-30T20:56:10.719Z,100838.61
2024-03-30T20:58:38.882Z,100842.85
2024-03-30T21:01:07.498Z,100836.50
2024-03-30T21:03:36.763Z,100838.83
2024-03-30T21:06:09.256Z,100836.47
2024-03-30T21:08:37.371Z,100841.48
2024-03-30T21:11:05.711Z,100844.13
2024-03-30T21:13:34.391Z,100845.17
2024-03-30T21:16:03.507Z,100845.45
2024-03-30T21:18:33.213Z,100845.88
2024-03-30T21:21:02.630Z,100844.02
2024-03-30T21:23:33.085Z,100843.23
2024-03-30T21:26:05.675Z,100847.11
2024-03-30T21:28:36.327Z,100845.38
2024-03-30T21:31:04.693Z,100845.58
2024-03-30T21:33:35.724Z,100846.99
2024-03-30T21:36:04.644Z,100844.73
2024-03-30T21:38:32.646Z,100848.08
2024-03-30T21:41:01.876Z,100847.50
2024-03-30T21:43:29.932Z,100847.12
2024-03-30T21:46:01.205Z,100850.73
2024-03-30T21:48:29.290Z,100850.44
2024-03-30T21:50:58.969Z,100853.91
2024-03-30T21:53:27.725Z,100854.27
2024-03-30T21:55:56.789Z,100859.42
2024-03-30T21:58:24.794Z,100865.06
2024-03-30T22:00:53.280Z,100855.52
2024-03-30T22:03:21.965Z,100854.94
2024-03-30T22:05:57.802Z,100854.07
2024-03-30T22:08:26.480Z,100853.25
2024-03-30T22:10:55.325Z,100855.48
2024-03-30T22:13:23.730Z,100855.59
2024-03-30T22:15:51.651Z,100857.33
2024-03-30T22:18:19.846Z,100859.73
2024-03-30T22:20:47.772Z,100860.04
2024-03-30T22:23:16.010Z,100863.48
2024-03-30T22:25:44.357Z,100853.29
2024-03-30T22:28:12.552Z,100854.96
2024-03-30T22:30:40.729Z,100862.35
2024-03-30T22:33:09.529Z,100863.17
2024-03-30T22:35:38.814Z,100859.76
2024-03-30T22:38:07.220Z,100858.17
2024-03-30T22:40:37.499Z,100857.21
2024-03-30T22:43:06.898Z,100855.60
2024-03-30T22:45:38.189Z,100858.48
2024-03-30T22:48:07.001Z,100854.33
2024-03-30T22:50:35.194Z,100856.02
2024-03-30T22:53:03.530Z,100853.15
2024-03-30T22:55:31.541Z,100851.54
2024-03-30T22:57:59.569Z,100854.92
2024-03-30T23:00:27.880Z,100856.48
2024-03-30T23:02:56.338Z,100856.14
2024-03-30T23:05:24.799Z,100854.19
2024-03-30T23:07:52.906Z,100854.63
2024-03-30T23:10:21.099Z,100854.77
2024-03-30T23:12:49.059Z,100856.24
2024-03-30T23:15:17.373Z,100851.54
2024-03-30T23:17:45.978Z,100860.45
2024-03-30T23:20:13.960Z,100862.11
2024-03-30T23:22:42.175Z,100866.59
2024-03-30T23:25:10.318Z,100861.55
2024-03-30T23:27:38.872Z,100866.20
2024-03-30T23:30:07.887Z,100859.89
2024-03-30T23:32:36.479Z,100863.40
2024-03-30T23:35:05.335Z,100866.95
2024-03-30T23:37:33.746Z,100864.42
2024-03-30T23:40:01.923Z,100870.11
2024-03-30T23:42:30.099Z,100868.52
2024-03-30T23:44:58.070Z,100865.81
2024-03-30T23:47:26.073Z,100866.89
2024-03-30T23:49:54.519Z,100865.11
2024-03-30T23:52:22.604Z,100864.95
2024-03-30T23:54:50.624Z,100867.95
2024-03-30T23:57:18.979Z,100861.74
2024-03-30T23:59:47.220Z,100860.19
